sensor_id;sensor_type;location;lat;lon;timestamp;pressure;altitude;pressure_sealevel;temperature;humidity
69772;BME280;57046;45.988;18.664;2023-03-13T00:01:45;101107.75;;;2.99;76.04
69772;BME280;57046;45.988;18.664;2023-03-13T00:04:11;101107.19;;;2.97;76.42
69772;BME280;57046;45.988;18.664;2023-03-13T00:06:38;101100.03;;;3.02;75.80
69772;BME280;57046;45.988;18.664;2023-03-13T00:09:06;101106.16;;;3.03;75.57
69772;BME280;57046;45.988;18.664;2023-03-13T00:11:32;101102.75;;;3.07;74.91
69772;BME280;57046;45.988;18.664;2023-03-13T00:13:59;101087.16;;;2.94;75.11
69772;BME280;57046;45.988;18.664;2023-03-13T00:16:25;101096.88;;;3.11;74.93
69772;BME280;57046;45.988;18.664;2023-03-13T00:18:52;101099.56;;;3.11;75.26
69772;BME280;57046;45.988;18.664;2023-03-13T00:21:20;101059.03;;;2.82;75.48
69772;BME280;57046;45.988;18.664;2023-03-13T00:23:46;101085.06;;;3.01;74.98
69772;BME280;57046;45.988;18.664;2023-03-13T00:26:14;101049.16;;;2.82;74.96
69772;BME280;57046;45.988;18.664;2023-03-13T00:28:44;101084.81;;;3.03;75.46
69772;BME280;57046;45.988;18.664;2023-03-13T00:33:42;101100.53;;;2.99;75.58
69772;BME280;57046;45.988;18.664;2023-03-13T00:36:10;101089.28;;;2.92;75.79
69772;BME280;57046;45.988;18.664;2023-03-13T00:38:36;101092.25;;;2.96;75.80
69772;BME280;57046;45.988;18.664;2023-03-13T00:41:09;101092.38;;;2.84;75.92
69772;BME280;57046;45.988;18.664;2023-03-13T00:43:35;101105.75;;;2.89;75.58
69772;BME280;57046;45.988;18.664;2023-03-13T00:46:00;101104.19;;;2.88;75.88
69772;BME280;57046;45.988;18.664;2023-03-13T00:48:26;101116.41;;;2.84;77.24
69772;BME280;57046;45.988;18.664;2023-03-13T00:50:51;101129.25;;;2.87;75.71
69772;BME280;57046;45.988;18.664;2023-03-13T00:53:17;101114.88;;;2.93;75.86
69772;BME280;57046;45.988;18.664;2023-03-13T00:55:56;101097.28;;;2.92;75.92
69772;BME280;57046;45.988;18.664;2023-03-13T00:58:25;101110.16;;;3.00;76.78
69772;BME280;57046;45.988;18.664;2023-03-13T01:00:51;101110.44;;;3.04;77.57
69772;BME280;57046;45.988;18.664;2023-03-13T01:03:17;101098.72;;;3.05;77.72
69772;BME280;57046;45.988;18.664;2023-03-13T01:05:42;101090.13;;;3.03;76.97
69772;BME280;57046;45.988;18.664;2023-03-13T01:08:08;101089.16;;;3.14;77.44
69772;BME280;57046;45.988;18.664;2023-03-13T01:10:34;101070.63;;;2.97;77.65
69772;BME280;57046;45.988;18.664;2023-03-13T01:12:59;101070.31;;;2.94;77.75
69772;BME280;57046;45.988;18.664;2023-03-13T01:15:25;101085.06;;;3.01;77.69
69772;BME280;57046;45.988;18.664;2023-03-13T01:17:50;101079.22;;;3.04;76.90
69772;BME280;57046;45.988;18.664;2023-03-13T01:20:16;101063.72;;;3.01;77.71
69772;BME280;57046;45.988;18.664;2023-03-13T01:22:41;101063.16;;;2.99;78.13
69772;BME280;57046;45.988;18.664;2023-03-13T01:25:07;101060.00;;;3.02;78.37
69772;BME280;57046;45.988;18.664;2023-03-13T01:27:32;101056.22;;;2.98;78.56
69772;BME280;57046;45.988;18.664;2023-03-13T01:29:58;101053.03;;;3.01;78.66
69772;BME280;57046;45.988;18.664;2023-03-13T01:32:23;101061.88;;;3.07;77.37
69772;BME280;57046;45.988;18.664;2023-03-13T01:34:48;101062.41;;;3.04;78.13
69772;BME280;57046;45.988;18.664;2023-03-13T01:37:14;101061.84;;;3.02;78.16
69772;BME280;57046;45.988;18.664;2023-03-13T01:39:39;101065.56;;;3.01;78.57
69772;BME280;57046;45.988;18.664;2023-03-13T01:42:06;101073.13;;;3.09;78.24
69772;BME280;57046;45.988;18.664;2023-03-13T01:44:55;101078.19;;;3.11;77.69
69772;BME280;57046;45.988;18.664;2023-03-13T01:47:21;101066.47;;;3.12;77.92
69772;BME280;57046;45.988;18.664;2023-03-13T01:49:48;101058.47;;;3.12;78.03
69772;BME280;57046;45.988;18.664;2023-03-13T01:52:18;101059.50;;;3.11;78.21
69772;BME280;57046;45.988;18.664;2023-03-13T01:54:56;101055.50;;;3.08;78.35
69772;BME280;57046;45.988;18.664;2023-03-13T01:57:29;101060.31;;;3.11;77.38
69772;BME280;57046;45.988;18.664;2023-03-13T02:00:00;101057.34;;;3.07;76.92
69772;BME280;57046;45.988;18.664;2023-03-13T02:02:27;101044.56;;;3.10;76.64
69772;BME280;57046;45.988;18.664;2023-03-13T02:04:56;101049.34;;;3.07;77.47
69772;BME280;57046;45.988;18.664;2023-03-13T02:07:30;101035.13;;;2.97;77.47
69772;BME280;57046;45.988;18.664;2023-03-13T02:09:58;101051.22;;;3.07;77.63
69772;BME280;57046;45.988;18.664;2023-03-13T02:12:34;101052.00;;;3.07;77.52
69772;BME280;57046;45.988;18.664;2023-03-13T02:15:03;101052.53;;;3.04;78.69
69772;BME280;57046;45.988;18.664;2023-03-13T02:17:29;101060.03;;;3.07;78.34
69772;BME280;57046;45.988;18.664;2023-03-13T02:19:57;101054.69;;;3.07;78.55
69772;BME280;57046;45.988;18.664;2023-03-13T02:27:41;101016.06;;;2.83;79.13
69772;BME280;57046;45.988;18.664;2023-03-13T02:30:09;101063.25;;;3.10;80.05
69772;BME280;57046;45.988;18.664;2023-03-13T02:32:35;101055.78;;;3.12;79.82
69772;BME280;57046;45.988;18.664;2023-03-13T02:35:05;101066.75;;;3.15;78.63
69772;BME280;57046;45.988;18.664;2023-03-13T02:37:32;101051.28;;;3.17;78.95
69772;BME280;57046;45.988;18.664;2023-03-13T02:40:00;101049.94;;;3.15;78.54
69772;BME280;57046;45.988;18.664;2023-03-13T02:42:28;101052.66;;;3.20;77.20
69772;BME280;57046;45.988;18.664;2023-03-13T02:44:54;101041.91;;;3.10;77.90
69772;BME280;57046;45.988;18.664;2023-03-13T02:47:22;101031.03;;;2.89;77.41
69772;BME280;57046;45.988;18.664;2023-03-13T02:49:48;101052.00;;;3.02;77.44
69772;BME280;57046;45.988;18.664;2023-03-13T02:52:16;101045.06;;;3.06;76.69
69772;BME280;57046;45.988;18.664;2023-03-13T02:54:46;101041.78;;;2.99;77.71
69772;BME280;57046;45.988;18.664;2023-03-13T02:57:12;101044.06;;;2.81;79.37
69772;BME280;57046;45.988;18.664;2023-03-13T02:59:37;101034.72;;;2.78;79.25
69772;BME280;57046;45.988;18.664;2023-03-13T03:02:03;101031.47;;;2.76;80.26
69772;BME280;57046;45.988;18.664;2023-03-13T03:04:29;101033.91;;;2.83;79.55
69772;BME280;57046;45.988;18.664;2023-03-13T03:06:54;101044.66;;;2.88;78.88
69772;BME280;57046;45.988;18.664;2023-03-13T03:09:20;101053.16;;;2.85;79.56
69772;BME280;57046;45.988;18.664;2023-03-13T03:11:46;101061.38;;;2.78;78.87
69772;BME280;57046;45.988;18.664;2023-03-13T03:14:11;101062.53;;;2.87;78.36
69772;BME280;57046;45.988;18.664;2023-03-13T03:16:37;101064.69;;;2.90;78.11
69772;BME280;57046;45.988;18.664;2023-03-13T03:19:03;101060.66;;;2.88;78.83
69772;BME280;57046;45.988;18.664;2023-03-13T03:21:29;101062.50;;;2.82;78.56
69772;BME280;57046;45.988;18.664;2023-03-13T03:23:54;101065.16;;;2.82;78.37
69772;BME280;57046;45.988;18.664;2023-03-13T03:26:20;101041.81;;;2.68;78.50
69772;BME280;57046;45.988;18.664;2023-03-13T03:28:45;101067.53;;;2.79;78.48
69772;BME280;57046;45.988;18.664;2023-03-13T03:31:12;101060.78;;;2.71;78.61
69772;BME280;57046;45.988;18.664;2023-03-13T03:33:39;101044.97;;;2.65;78.87
69772;BME280;57046;45.988;18.664;2023-03-13T03:36:16;101051.69;;;2.72;78.08
69772;BME280;57046;45.988;18.664;2023-03-13T03:38:42;101049.50;;;2.64;78.38
69772;BME280;57046;45.988;18.664;2023-03-13T03:41:10;101045.69;;;2.55;78.54
69772;BME280;57046;45.988;18.664;2023-03-13T03:43:36;101054.84;;;2.64;78.62
69772;BME280;57046;45.988;18.664;2023-03-13T03:46:02;101056.72;;;2.64;78.54
69772;BME280;57046;45.988;18.664;2023-03-13T03:48:27;101049.22;;;2.61;78.69
69772;BME280;57046;45.988;18.664;2023-03-13T03:50:53;101052.19;;;2.64;78.32
69772;BME280;57046;45.988;18.664;2023-03-13T03:53:18;101046.84;;;2.64;78.03
69772;BME280;57046;45.988;18.664;2023-03-13T03:55:44;101040.16;;;2.62;78.35
69772;BME280;57046;45.988;18.664;2023-03-13T03:58:09;101036.63;;;2.56;78.15
69772;BME280;57046;45.988;18.664;2023-03-13T04:00:35;101017.00;;;2.40;78.08
69772;BME280;57046;45.988;18.664;2023-03-13T04:03:00;101046.94;;;2.47;78.50
69772;BME280;57046;45.988;18.664;2023-03-13T04:05:26;101042.13;;;2.44;78.25
69772;BME280;57046;45.988;18.664;2023-03-13T04:07:51;101033.56;;;2.42;78.59
69772;BME280;57046;45.988;18.664;2023-03-13T04:10:16;101045.28;;;2.41;78.96
69772;BME280;57046;45.988;18.664;2023-03-13T04:12:42;101045.59;;;2.45;79.22
69772;BME280;57046;45.988;18.664;2023-03-13T04:15:07;101047.66;;;2.38;79.48
69772;BME280;57046;45.988;18.664;2023-03-13T04:17:33;101048.41;;;2.33;79.23
69772;BME280;57046;45.988;18.664;2023-03-13T04:19:59;101052.91;;;2.33;79.24
69772;BME280;57046;45.988;18.664;2023-03-13T04:22:24;101054.75;;;2.27;79.31
69772;BME280;57046;45.988;18.664;2023-03-13T04:24:50;101053.66;;;2.28;79.28
69772;BME280;57046;45.988;18.664;2023-03-13T04:27:15;101071.59;;;2.33;78.82
69772;BME280;57046;45.988;18.664;2023-03-13T04:29:41;101058.44;;;2.26;79.13
69772;BME280;57046;45.988;18.664;2023-03-13T04:32:06;101060.13;;;2.32;78.64
69772;BME280;57046;45.988;18.664;2023-03-13T04:34:32;101062.84;;;2.37;78.92
69772;BME280;57046;45.988;18.664;2023-03-13T04:36:58;101066.78;;;2.35;79.20
69772;BME280;57046;45.988;18.664;2023-03-13T04:39:23;101061.47;;;2.35;78.78
69772;BME280;57046;45.988;18.664;2023-03-13T04:41:48;101064.69;;;2.37;78.62
69772;BME280;57046;45.988;18.664;2023-03-13T04:44:14;101062.56;;;2.39;79.61
69772;BME280;57046;45.988;18.664;2023-03-13T04:46:39;101065.25;;;2.39;78.61
69772;BME280;57046;45.988;18.664;2023-03-13T04:49:04;101057.63;;;2.47;88.50
69772;BME280;57046;45.988;18.664;2023-03-13T04:51:30;101070.34;;;2.40;80.76
69772;BME280;57046;45.988;18.664;2023-03-13T04:53:55;101065.03;;;2.45;87.33
69772;BME280;57046;45.988;18.664;2023-03-13T04:56:24;101038.16;;;2.25;81.24
69772;BME280;57046;45.988;18.664;2023-03-13T04:58:49;101071.19;;;2.46;79.27
69772;BME280;57046;45.988;18.664;2023-03-13T05:01:15;101080.19;;;2.40;79.02
69772;BME280;57046;45.988;18.664;2023-03-13T05:03:40;101076.50;;;2.41;78.81
69772;BME280;57046;45.988;18.664;2023-03-13T05:06:06;101083.09;;;2.38;78.14
69772;BME280;57046;45.988;18.664;2023-03-13T05:08:31;101083.09;;;2.38;78.53
69772;BME280;57046;45.988;18.664;2023-03-13T05:10:57;101084.72;;;2.39;78.56
69772;BME280;57046;45.988;18.664;2023-03-13T05:13:22;101090.31;;;2.38;78.57
69772;BME280;57046;45.988;18.664;2023-03-13T05:15:47;101097.50;;;2.37;78.46
69772;BME280;57046;45.988;18.664;2023-03-13T05:18:13;101083.38;;;2.37;78.57
69772;BME280;57046;45.988;18.664;2023-03-13T05:20:38;101082.88;;;2.40;78.17
69772;BME280;57046;45.988;18.664;2023-03-13T05:23:04;101069.78;;;2.38;78.92
69772;BME280;57046;45.988;18.664;2023-03-13T05:25:29;101071.09;;;2.36;78.71
69772;BME280;57046;45.988;18.664;2023-03-13T05:27:54;101071.09;;;2.36;78.69
69772;BME280;57046;45.988;18.664;2023-03-13T05:30:20;101073.75;;;2.36;79.25
69772;BME280;57046;45.988;18.664;2023-03-13T05:32:45;101069.19;;;2.31;79.40
69772;BME280;57046;45.988;18.664;2023-03-13T05:35:11;101067.81;;;2.29;79.33
69772;BME280;57046;45.988;18.664;2023-03-13T05:37:36;101068.31;;;2.26;78.88
69772;BME280;57046;45.988;18.664;2023-03-13T05:40:01;101068.00;;;2.22;79.57
69772;BME280;57046;45.988;18.664;2023-03-13T05:42:27;101077.47;;;2.35;79.49
69772;BME280;57046;45.988;18.664;2023-03-13T05:44:52;101079.88;;;2.36;79.50
69772;BME280;57046;45.988;18.664;2023-03-13T05:47:18;101078.59;;;2.39;79.22
69772;BME280;57046;45.988;18.664;2023-03-13T05:49:43;101067.91;;;2.39;79.84
69772;BME280;57046;45.988;18.664;2023-03-13T05:52:09;101066.63;;;2.41;79.93
69772;BME280;57046;45.988;18.664;2023-03-13T05:54:34;101070.84;;;2.37;80.18
69772;BME280;57046;45.988;18.664;2023-03-13T05:56:59;101070.06;;;2.42;80.44
69772;BME280;57046;45.988;18.664;2023-03-13T05:59:25;101072.53;;;2.48;80.13
69772;BME280;57046;45.988;18.664;2023-03-13T06:01:50;101064.31;;;2.50;79.82
69772;BME280;57046;45.988;18.664;2023-03-13T06:04:15;101056.84;;;2.52;79.17
69772;BME280;57046;45.988;18.664;2023-03-13T06:06:41;101053.69;;;2.55;80.01
69772;BME280;57046;45.988;18.664;2023-03-13T06:09:06;101067.41;;;2.95;96.50
69772;BME280;57046;45.988;18.664;2023-03-13T06:11:32;101073.75;;;2.89;88.08
69772;BME280;57046;45.988;18.664;2023-03-13T06:13:57;101074.47;;;2.80;82.83
69772;BME280;57046;45.988;18.664;2023-03-13T06:16:22;101068.53;;;2.73;82.03
69772;BME280;57046;45.988;18.664;2023-03-13T06:18:48;101078.50;;;2.82;80.55
69772;BME280;57046;45.988;18.664;2023-03-13T06:21:13;101079.03;;;2.84;80.31
69772;BME280;57046;45.988;18.664;2023-03-13T06:23:39;101088.16;;;2.88;79.45
69772;BME280;57046;45.988;18.664;2023-03-13T06:26:04;101075.34;;;2.85;78.95
69772;BME280;57046;45.988;18.664;2023-03-13T06:28:30;101089.00;;;2.94;79.49
69772;BME280;57046;45.988;18.664;2023-03-13T06:31:00;101062.97;;;2.79;80.43
69772;BME280;57046;45.988;18.664;2023-03-13T06:33:26;101089.34;;;3.02;79.82
69772;BME280;57046;45.988;18.664;2023-03-13T06:35:51;101096.06;;;3.10;80.21
69772;BME280;57046;45.988;18.664;2023-03-13T06:38:17;101087.00;;;3.11;79.30
69772;BME280;57046;45.988;18.664;2023-03-13T06:40:42;101091.91;;;3.19;78.45
69772;BME280;57046;45.988;18.664;2023-03-13T06:43:07;101096.44;;;3.24;78.17
69772;BME280;57046;45.988;18.664;2023-03-13T06:45:35;101096.50;;;3.29;78.19
69772;BME280;57046;45.988;18.664;2023-03-13T06:48:02;101087.53;;;3.40;78.39
69772;BME280;57046;45.988;18.664;2023-03-13T06:50:27;101092.34;;;3.43;78.60
69772;BME280;57046;45.988;18.664;2023-03-13T06:52:53;101091.59;;;3.52;77.85
69772;BME280;57046;45.988;18.664;2023-03-13T06:55:18;101087.09;;;3.58;78.62
69772;BME280;57046;45.988;18.664;2023-03-13T06:57:48;101051.75;;;3.46;80.37
69772;BME280;57046;45.988;18.664;2023-03-13T07:00:14;101074.34;;;3.75;80.65
69772;BME280;57046;45.988;18.664;2023-03-13T07:02:39;101070.41;;;3.83;80.65
69772;BME280;57046;45.988;18.664;2023-03-13T07:05:05;101076.84;;;3.92;81.75
69772;BME280;57046;45.988;18.664;2023-03-13T07:07:31;101080.91;;;3.99;81.83
69772;BME280;57046;45.988;18.664;2023-03-13T07:09:56;101071.06;;;4.10;81.50
69772;BME280;57046;45.988;18.664;2023-03-13T07:12:22;101076.97;;;4.22;80.16
69772;BME280;57046;45.988;18.664;2023-03-13T07:14:47;101077.53;;;4.29;78.09
69772;BME280;57046;45.988;18.664;2023-03-13T07:17:12;101082.13;;;4.39;78.37
69772;BME280;57046;45.988;18.664;2023-03-13T07:19:38;101085.91;;;4.48;77.77
69772;BME280;57046;45.988;18.664;2023-03-13T07:22:03;101088.31;;;4.54;78.03
69772;BME280;57046;45.988;18.664;2023-03-13T07:24:28;101088.88;;;4.67;79.53
69772;BME280;57046;45.988;18.664;2023-03-13T07:26:54;101081.13;;;4.80;77.96
69772;BME280;57046;45.988;18.664;2023-03-13T07:29:19;101081.69;;;4.92;78.28
69772;BME280;57046;45.988;18.664;2023-03-13T07:31:44;101087.31;;;5.06;78.24
69772;BME280;57046;45.988;18.664;2023-03-13T07:34:10;101080.91;;;5.17;77.66
69772;BME280;57046;45.988;18.664;2023-03-13T07:36:35;101079.25;;;5.31;79.09
69772;BME280;57046;45.988;18.664;2023-03-13T07:39:00;101085.97;;;5.44;75.14
69772;BME280;57046;45.988;18.664;2023-03-13T07:41:26;101083.53;;;5.57;75.24
69772;BME280;57046;45.988;18.664;2023-03-13T07:43:51;101080.84;;;5.68;75.12
69772;BME280;57046;45.988;18.664;2023-03-13T07:46:18;101091.50;;;5.83;75.32
69772;BME280;57046;45.988;18.664;2023-03-13T07:48:43;101079.44;;;5.95;74.22
69772;BME280;57046;45.988;18.664;2023-03-13T07:51:17;101084.78;;;6.05;73.26
69772;BME280;57046;45.988;18.664;2023-03-13T07:53:43;101083.09;;;6.20;72.94
69772;BME280;57046;45.988;18.664;2023-03-13T07:56:11;101068.84;;;6.29;71.91
69772;BME280;57046;45.988;18.664;2023-03-13T07:58:38;101040.97;;;6.20;71.25
69772;BME280;57046;45.988;18.664;2023-03-13T08:01:21;101076.50;;;6.51;71.83
69772;BME280;57046;45.988;18.664;2023-03-13T08:03:46;101086.38;;;6.60;72.59
69772;BME280;57046;45.988;18.664;2023-03-13T08:06:14;101082.00;;;6.75;72.53
69772;BME280;57046;45.988;18.664;2023-03-13T08:08:40;101070.34;;;6.89;73.11
69772;BME280;57046;45.988;18.664;2023-03-13T08:11:13;101065.88;;;7.08;69.88
69772;BME280;57046;45.988;18.664;2023-03-13T08:13:39;101059.81;;;7.27;69.66
69772;BME280;57046;45.988;18.664;2023-03-13T08:16:10;101031.63;;;7.24;70.26
69772;BME280;57046;45.988;18.664;2023-03-13T08:18:38;101050.09;;;7.59;69.96
69772;BME280;57046;45.988;18.664;2023-03-13T08:21:14;101048.84;;;7.76;67.46
69772;BME280;57046;45.988;18.664;2023-03-13T08:23:41;101045.47;;;7.89;68.66
69772;BME280;57046;45.988;18.664;2023-03-13T08:26:11;101025.34;;;8.05;65.82
69772;BME280;57046;45.988;18.664;2023-03-13T08:28:38;101044.41;;;8.32;65.41
69772;BME280;57046;45.988;18.664;2023-03-13T08:33:33;101030.66;;;8.52;64.41
69772;BME280;57046;45.988;18.664;2023-03-13T08:35:58;101030.72;;;8.66;67.06
69772;BME280;57046;45.988;18.664;2023-03-13T08:38:23;101015.69;;;8.79;65.73
69772;BME280;57046;45.988;18.664;2023-03-13T08:40:49;101017.34;;;8.93;65.16
69772;BME280;57046;45.988;18.664;2023-03-13T08:43:14;101020.31;;;9.10;63.91
69772;BME280;57046;45.988;18.664;2023-03-13T08:45:39;101014.22;;;9.32;61.33
69772;BME280;57046;45.988;18.664;2023-03-13T08:48:05;101003.84;;;9.39;62.87
69772;BME280;57046;45.988;18.664;2023-03-13T08:50:30;101009.16;;;9.44;61.79
69772;BME280;57046;45.988;18.664;2023-03-13T08:52:55;101005.19;;;9.55;62.09
69772;BME280;57046;45.988;18.664;2023-03-13T08:55:21;101004.78;;;9.62;61.65
69772;BME280;57046;45.988;18.664;2023-03-13T08:57:46;101005.19;;;9.69;60.85
69772;BME280;57046;45.988;18.664;2023-03-13T09:00:12;101001.50;;;9.79;61.61
69772;BME280;57046;45.988;18.664;2023-03-13T09:02:37;101003.56;;;9.95;62.00
69772;BME280;57046;45.988;18.664;2023-03-13T09:05:03;101001.75;;;10.04;59.86
69772;BME280;57046;45.988;18.664;2023-03-13T09:07:28;100999.25;;;10.08;59.16
69772;BME280;57046;45.988;18.664;2023-03-13T09:09:54;100996.75;;;10.25;58.29
69772;BME280;57046;45.988;18.664;2023-03-13T09:12:19;100993.09;;;10.43;57.55
69772;BME280;57046;45.988;18.664;2023-03-13T09:14:44;100993.28;;;10.47;57.05
69772;BME280;57046;45.988;18.664;2023-03-13T09:17:10;101000.81;;;10.58;58.04
69772;BME280;57046;45.988;18.664;2023-03-13T09:19:35;100986.97;;;10.73;58.33
69772;BME280;57046;45.988;18.664;2023-03-13T09:22:01;100956.94;;;10.53;56.57
69772;BME280;57046;45.988;18.664;2023-03-13T09:24:26;100989.72;;;10.82;57.74
69772;BME280;57046;45.988;18.664;2023-03-13T09:26:51;100989.47;;;10.92;56.39
69772;BME280;57046;45.988;18.664;2023-03-13T09:29:17;100978.91;;;11.13;56.80
69772;BME280;57046;45.988;18.664;2023-03-13T09:31:42;100976.00;;;11.32;55.09
69772;BME280;57046;45.988;18.664;2023-03-13T09:34:07;100980.69;;;11.48;54.17
69772;BME280;57046;45.988;18.664;2023-03-13T09:36:33;100972.47;;;11.62;49.70
69772;BME280;57046;45.988;18.664;2023-03-13T09:38:59;100970.16;;;11.86;50.44
69772;BME280;57046;45.988;18.664;2023-03-13T09:44:38;100973.41;;;12.31;49.53
69772;BME280;57046;45.988;18.664;2023-03-13T09:47:27;100971.31;;;12.45;48.88
69772;BME280;57046;45.988;18.664;2023-03-13T09:50:03;100952.03;;;12.64;48.56
69772;BME280;57046;45.988;18.664;2023-03-13T09:52:33;100970.38;;;12.75;46.72
69772;BME280;57046;45.988;18.664;2023-03-13T09:55:23;100946.22;;;12.91;46.71
69772;BME280;57046;45.988;18.664;2023-03-13T09:58:21;100949.69;;;13.17;47.96
69772;BME280;57046;45.988;18.664;2023-03-13T10:00:53;100950.16;;;13.19;47.09
69772;BME280;57046;45.988;18.664;2023-03-13T10:06:10;100932.22;;;13.65;46.56
69772;BME280;57046;45.988;18.664;2023-03-13T10:08:37;100927.84;;;13.72;45.96
69772;BME280;57046;45.988;18.664;2023-03-13T10:11:03;100926.53;;;13.78;45.17
69772;BME280;57046;45.988;18.664;2023-03-13T10:13:34;100924.22;;;13.89;45.15
69772;BME280;57046;45.988;18.664;2023-03-13T10:16:07;100921.91;;;14.00;45.66
69772;BME280;57046;45.988;18.664;2023-03-13T10:18:33;100920.00;;;14.21;45.32
69772;BME280;57046;45.988;18.664;2023-03-13T10:21:01;100921.50;;;14.31;44.61
69772;BME280;57046;45.988;18.664;2023-03-13T10:23:51;100918.13;;;14.54;44.25
69772;BME280;57046;45.988;18.664;2023-03-13T10:26:27;100914.66;;;14.66;43.43
69772;BME280;57046;45.988;18.664;2023-03-13T10:28:54;100915.09;;;14.56;43.01
69772;BME280;57046;45.988;18.664;2023-03-13T10:31:27;100910.34;;;14.65;42.49
69772;BME280;57046;45.988;18.664;2023-03-13T10:34:05;100890.00;;;14.83;43.50
69772;BME280;57046;45.988;18.664;2023-03-13T10:36:39;100901.81;;;14.99;43.20
69772;BME280;57046;45.988;18.664;2023-03-13T10:39:07;100872.31;;;14.89;42.68
69772;BME280;57046;45.988;18.664;2023-03-13T10:41:37;100893.91;;;15.31;43.04
69772;BME280;57046;45.988;18.664;2023-03-13T10:44:05;100886.16;;;15.45;43.39
69772;BME280;57046;45.988;18.664;2023-03-13T10:46:33;100875.81;;;15.38;42.46
69772;BME280;57046;45.988;18.664;2023-03-13T10:49:02;100890.13;;;15.47;40.66
69772;BME280;57046;45.988;18.664;2023-03-13T10:51:39;100883.34;;;15.53;41.10
69772;BME280;57046;45.988;18.664;2023-03-13T10:56:50;100888.88;;;15.69;40.79
69772;BME280;57046;45.988;18.664;2023-03-13T10:59:22;100874.09;;;15.82;40.69
69772;BME280;57046;45.988;18.664;2023-03-13T11:01:49;100880.00;;;15.84;40.43
69772;BME280;57046;45.988;18.664;2023-03-13T11:04:34;100870.00;;;15.88;41.74
69772;BME280;57046;45.988;18.664;2023-03-13T11:07:08;100869.16;;;16.00;41.05
69772;BME280;57046;45.988;18.664;2023-03-13T11:09:38;100860.69;;;16.17;41.70
69772;BME280;57046;45.988;18.664;2023-03-13T11:12:12;100845.94;;;16.06;41.13
69772;BME280;57046;45.988;18.664;2023-03-13T11:14:39;100860.19;;;16.27;41.80
69772;BME280;57046;45.988;18.664;2023-03-13T11:17:35;100843.31;;;16.37;41.54
69772;BME280;57046;45.988;18.664;2023-03-13T11:25:19;100846.94;;;16.41;41.09
69772;BME280;57046;45.988;18.664;2023-03-13T11:33:03;100792.91;;;16.47;41.51
69772;BME280;57046;45.988;18.664;2023-03-13T11:35:39;100821.22;;;16.70;40.74
69772;BME280;57046;45.988;18.664;2023-03-13T11:38:18;100816.09;;;16.84;41.60
69772;BME280;57046;45.988;18.664;2023-03-13T11:59:57;100769.06;;;17.25;40.96
69772;BME280;57046;45.988;18.664;2023-03-13T12:02:32;100765.22;;;17.46;41.42
69772;BME280;57046;45.988;18.664;2023-03-13T12:05:03;100754.38;;;17.49;41.00
69772;BME280;57046;45.988;18.664;2023-03-13T12:07:34;100752.16;;;17.55;41.57
69772;BME280;57046;45.988;18.664;2023-03-13T12:10:15;100744.81;;;17.59;41.19
69772;BME280;57046;45.988;18.664;2023-03-13T12:12:46;100734.75;;;17.63;41.46
69772;BME280;57046;45.988;18.664;2023-03-13T12:15:27;100726.56;;;17.63;41.67
69772;BME280;57046;45.988;18.664;2023-03-13T12:20:42;100721.44;;;17.80;41.43
69772;BME280;57046;45.988;18.664;2023-03-13T12:23:18;100706.44;;;17.94;40.50
69772;BME280;57046;45.988;18.664;2023-03-13T12:28:30;100704.16;;;18.18;41.77
69772;BME280;57046;45.988;18.664;2023-03-13T12:36:34;100690.22;;;18.50;39.63
69772;BME280;57046;45.988;18.664;2023-03-13T12:41:38;100677.03;;;18.55;41.15
69772;BME280;57046;45.988;18.664;2023-03-13T12:44:08;100653.31;;;18.63;41.68
69772;BME280;57046;45.988;18.664;2023-03-13T12:49:26;100664.41;;;18.73;41.50
69772;BME280;57046;45.988;18.664;2023-03-13T13:00:22;100647.28;;;18.80;39.43
69772;BME280;57046;45.988;18.664;2023-03-13T13:03:04;100623.00;;;18.78;40.27
69772;BME280;57046;45.988;18.664;2023-03-13T13:05:31;100635.41;;;18.99;40.10
69772;BME280;57046;45.988;18.664;2023-03-13T13:07:56;100631.13;;;19.01;39.79
69772;BME280;57046;45.988;18.664;2023-03-13T13:10:24;100637.72;;;18.97;39.62
69772;BME280;57046;45.988;18.664;2023-03-13T13:15:46;100621.44;;;19.07;40.17
69772;BME280;57046;45.988;18.664;2023-03-13T13:18:32;100620.22;;;19.05;40.23
69772;BME280;57046;45.988;18.664;2023-03-13T13:23:43;100613.22;;;19.41;40.52
69772;BME280;57046;45.988;18.664;2023-03-13T13:28:48;100608.75;;;19.62;39.50
69772;BME280;57046;45.988;18.664;2023-03-13T13:36:54;100602.56;;;19.69;39.43
69772;BME280;57046;45.988;18.664;2023-03-13T13:41:54;100596.06;;;19.91;38.66
69772;BME280;57046;45.988;18.664;2023-03-13T13:44:25;100587.25;;;19.68;38.98
69772;BME280;57046;45.988;18.664;2023-03-13T13:46:52;100577.22;;;19.83;40.13
69772;BME280;57046;45.988;18.664;2023-03-13T13:49:31;100558.47;;;19.48;37.69
69772;BME280;57046;45.988;18.664;2023-03-13T13:57:20;100528.25;;;19.41;39.00
69772;BME280;57046;45.988;18.664;2023-03-13T13:59:48;100551.50;;;19.57;38.90
69772;BME280;57046;45.988;18.664;2023-03-13T14:02:18;100532.69;;;19.52;38.68
69772;BME280;57046;45.988;18.664;2023-03-13T14:07:29;100543.69;;;19.56;39.08
69772;BME280;57046;45.988;18.664;2023-03-13T14:12:37;100545.09;;;19.43;38.74
69772;BME280;57046;45.988;18.664;2023-03-13T14:15:21;100545.91;;;19.47;39.52
69772;BME280;57046;45.988;18.664;2023-03-13T14:20:33;100528.91;;;19.30;39.03
69772;BME280;57046;45.988;18.664;2023-03-13T14:23:01;100481.94;;;18.95;39.81
69772;BME280;57046;45.988;18.664;2023-03-13T14:25:48;100520.19;;;19.58;40.12
69772;BME280;57046;45.988;18.664;2023-03-13T14:28:21;100515.81;;;19.50;39.62
69772;BME280;57046;45.988;18.664;2023-03-13T14:30:51;100511.38;;;19.39;39.47
69772;BME280;57046;45.988;18.664;2023-03-13T14:33:17;100512.84;;;19.32;39.73
69772;BME280;57046;45.988;18.664;2023-03-13T14:35:43;100509.66;;;19.23;39.25